Terminal Aerodrome Forecast
Issued by NWS

Home | Current Version | Previous Version | Text Only | Print | Product List | Glossary Off
Versions: 1 2 3 4 5 6 7 8 9 10 11 12 13 14 15 16 17 18 19 20 21 22 23 24 25 26 27

579
FTUS42 KMHX 231120
TAFPGV
TAF
KPGV 231120Z 2312/2412 VRB04KT P6SM BKN010
     FM231400 35007KT P6SM VCTS BKN020CB
     FM231800 35008KT P6SM VCTS BKN030CB
     FM232200 34006KT P6SM BKN050
     FM240600 24003KT P6SM SKC
      AMD LTD TO CLD VIS AND WIND=

USA.gov is the U.S. government's official web portal to all federal, state and local government web resources and services.